<?xml version="1.0" encoding="UTF-8" standalone="no" ?>
<gpx xmlns="http://www.topografix.com/GPX/1/1" xmlns:xsi="http://www.w3.org/2001/XMLSchema-instance" xsi:schemaLocation="http://www.topografix.com/GPX/1/1 http://www.topografix.com/GPX/1/1/gpx.xsd" version="1.1" creator="VisuGPX - https://www.visugpx.com">
  <metadata>
    <name>De Jonzieux à jonzieux 2018 22 km</name>
  </metadata>
  <trk>
    <name><![CDATA[9068298-virade Jonzieux 2018 22 km]]></name>
    <trkseg>
      <trkpt lat="45.31316" lon="4.36272">
        <ele>891</ele>
        <time>2020-07-07T20:06:37Z</time>
      </trkpt>
      <trkpt lat="45.31313" lon="4.36276">
        <ele>891</ele>
        <time>2020-07-07T20:06:38Z</time>
      </trkpt>
      <trkpt lat="45.31144" lon="4.36225">
        <ele>886</ele>
        <time>2020-07-07T20:07:18Z</time>
      </trkpt>
      <trkpt lat="45.30904" lon="4.36317">
        <ele>881</ele>
        <time>2020-07-07T20:08:16Z</time>
      </trkpt>
      <trkpt lat="45.30817" lon="4.36201">
        <ele>877</ele>
        <time>2020-07-07T20:08:44Z</time>
      </trkpt>
      <trkpt lat="45.30642" lon="4.3621">
        <ele>875</ele>
        <time>2020-07-07T20:09:25Z</time>
      </trkpt>
      <trkpt lat="45.30391" lon="4.36034">
        <ele>863</ele>
        <time>2020-07-07T20:10:30Z</time>
      </trkpt>
      <trkpt lat="45.30201" lon="4.36">
        <ele>848</ele>
        <time>2020-07-07T20:11:15Z</time>
      </trkpt>
      <trkpt lat="45.30077" lon="4.36034">
        <ele>833</ele>
        <time>2020-07-07T20:11:45Z</time>
      </trkpt>
      <trkpt lat="45.29996" lon="4.36141">
        <ele>813</ele>
        <time>2020-07-07T20:12:10Z</time>
      </trkpt>
      <trkpt lat="45.29999" lon="4.36377">
        <ele>808</ele>
        <time>2020-07-07T20:12:49Z</time>
      </trkpt>
      <trkpt lat="45.30068" lon="4.36523">
        <ele>810</ele>
        <time>2020-07-07T20:13:18Z</time>
      </trkpt>
      <trkpt lat="45.30036" lon="4.36641">
        <ele>812</ele>
        <time>2020-07-07T20:13:39Z</time>
      </trkpt>
      <trkpt lat="45.30079" lon="4.36727">
        <ele>815</ele>
        <time>2020-07-07T20:13:56Z</time>
      </trkpt>
      <trkpt lat="45.3016" lon="4.36877">
        <ele>817</ele>
        <time>2020-07-07T20:14:27Z</time>
      </trkpt>
      <trkpt lat="45.30145" lon="4.37143">
        <ele>834</ele>
        <time>2020-07-07T20:15:11Z</time>
      </trkpt>
      <trkpt lat="45.3019" lon="4.37367">
        <ele>835</ele>
        <time>2020-07-07T20:15:49Z</time>
      </trkpt>
      <trkpt lat="45.30233" lon="4.37942">
        <ele>863</ele>
        <time>2020-07-07T20:17:24Z</time>
      </trkpt>
      <trkpt lat="45.30308" lon="4.38298">
        <ele>863</ele>
        <time>2020-07-07T20:18:25Z</time>
      </trkpt>
      <trkpt lat="45.30266" lon="4.38727">
        <ele>848</ele>
        <time>2020-07-07T20:19:37Z</time>
      </trkpt>
      <trkpt lat="45.30361" lon="4.38652">
        <ele>855</ele>
        <time>2020-07-07T20:20:02Z</time>
      </trkpt>
      <trkpt lat="45.30464" lon="4.38373">
        <ele>852</ele>
        <time>2020-07-07T20:20:54Z</time>
      </trkpt>
      <trkpt lat="45.30548" lon="4.3836">
        <ele>864</ele>
        <time>2020-07-07T20:21:13Z</time>
      </trkpt>
      <trkpt lat="45.30545" lon="4.38167">
        <ele>876</ele>
        <time>2020-07-07T20:21:45Z</time>
      </trkpt>
      <trkpt lat="45.30672" lon="4.38279">
        <ele>896</ele>
        <time>2020-07-07T20:22:20Z</time>
      </trkpt>
      <trkpt lat="45.30796" lon="4.38283">
        <ele>907</ele>
        <time>2020-07-07T20:22:49Z</time>
      </trkpt>
      <trkpt lat="45.30838" lon="4.38184">
        <ele>911</ele>
        <time>2020-07-07T20:23:08Z</time>
      </trkpt>
      <trkpt lat="45.3091" lon="4.38253">
        <ele>910</ele>
        <time>2020-07-07T20:23:28Z</time>
      </trkpt>
      <trkpt lat="45.31218" lon="4.38699">
        <ele>927</ele>
        <time>2020-07-07T20:25:11Z</time>
      </trkpt>
      <trkpt lat="45.31416" lon="4.38954">
        <ele>956</ele>
        <time>2020-07-07T20:26:13Z</time>
      </trkpt>
      <trkpt lat="45.3153" lon="4.38997">
        <ele>953</ele>
        <time>2020-07-07T20:26:41Z</time>
      </trkpt>
      <trkpt lat="45.31663" lon="4.39126">
        <ele>952</ele>
        <time>2020-07-07T20:27:18Z</time>
      </trkpt>
      <trkpt lat="45.32" lon="4.38841">
        <ele>951</ele>
        <time>2020-07-07T20:28:50Z</time>
      </trkpt>
      <trkpt lat="45.32421" lon="4.38594">
        <ele>920</ele>
        <time>2020-07-07T20:30:36Z</time>
      </trkpt>
      <trkpt lat="45.32487" lon="4.38615">
        <ele>911</ele>
        <time>2020-07-07T20:30:52Z</time>
      </trkpt>
      <trkpt lat="45.32686" lon="4.38697">
        <ele>880</ele>
        <time>2020-07-07T20:31:41Z</time>
      </trkpt>
      <trkpt lat="45.32849" lon="4.3865">
        <ele>867</ele>
        <time>2020-07-07T20:32:19Z</time>
      </trkpt>
      <trkpt lat="45.32837" lon="4.38615">
        <ele>866</ele>
        <time>2020-07-07T20:32:26Z</time>
      </trkpt>
      <trkpt lat="45.32925" lon="4.38439">
        <ele>885</ele>
        <time>2020-07-07T20:33:01Z</time>
      </trkpt>
      <trkpt lat="45.33039" lon="4.38422">
        <ele>891</ele>
        <time>2020-07-07T20:33:28Z</time>
      </trkpt>
      <trkpt lat="45.3313" lon="4.38276">
        <ele>909</ele>
        <time>2020-07-07T20:34:00Z</time>
      </trkpt>
      <trkpt lat="45.33362" lon="4.38272">
        <ele>907</ele>
        <time>2020-07-07T20:34:54Z</time>
      </trkpt>
      <trkpt lat="45.3348" lon="4.38096">
        <ele>915</ele>
        <time>2020-07-07T20:35:34Z</time>
      </trkpt>
      <trkpt lat="45.33486" lon="4.37963">
        <ele>919</ele>
        <time>2020-07-07T20:35:56Z</time>
      </trkpt>
      <trkpt lat="45.33631" lon="4.37929">
        <ele>920</ele>
        <time>2020-07-07T20:36:30Z</time>
      </trkpt>
      <trkpt lat="45.33679" lon="4.37997">
        <ele>921</ele>
        <time>2020-07-07T20:36:46Z</time>
      </trkpt>
      <trkpt lat="45.33706" lon="4.38105">
        <ele>924</ele>
        <time>2020-07-07T20:37:05Z</time>
      </trkpt>
      <trkpt lat="45.33697" lon="4.38397">
        <ele>925</ele>
        <time>2020-07-07T20:37:53Z</time>
      </trkpt>
      <trkpt lat="45.33916" lon="4.38485">
        <ele>936</ele>
        <time>2020-07-07T20:38:46Z</time>
      </trkpt>
      <trkpt lat="45.34077" lon="4.38517">
        <ele>938</ele>
        <time>2020-07-07T20:39:24Z</time>
      </trkpt>
      <trkpt lat="45.34172" lon="4.38493">
        <ele>938</ele>
        <time>2020-07-07T20:39:47Z</time>
      </trkpt>
      <trkpt lat="45.34264" lon="4.385">
        <ele>939</ele>
        <time>2020-07-07T20:40:08Z</time>
      </trkpt>
      <trkpt lat="45.34792" lon="4.38551">
        <ele>934</ele>
        <time>2020-07-07T20:42:12Z</time>
      </trkpt>
      <trkpt lat="45.34772" lon="4.38476">
        <ele>924</ele>
        <time>2020-07-07T20:42:25Z</time>
      </trkpt>
      <trkpt lat="45.34846" lon="4.38465">
        <ele>915</ele>
        <time>2020-07-07T20:42:42Z</time>
      </trkpt>
      <trkpt lat="45.34894" lon="4.38401">
        <ele>908</ele>
        <time>2020-07-07T20:42:58Z</time>
      </trkpt>
      <trkpt lat="45.34915" lon="4.38203">
        <ele>898</ele>
        <time>2020-07-07T20:43:31Z</time>
      </trkpt>
      <trkpt lat="45.34966" lon="4.38031">
        <ele>888</ele>
        <time>2020-07-07T20:44:01Z</time>
      </trkpt>
      <trkpt lat="45.34744" lon="4.37921">
        <ele>893</ele>
        <time>2020-07-07T20:44:56Z</time>
      </trkpt>
      <trkpt lat="45.34684" lon="4.37764">
        <ele>892</ele>
        <time>2020-07-07T20:45:25Z</time>
      </trkpt>
      <trkpt lat="45.34889" lon="4.37557">
        <ele>879</ele>
        <time>2020-07-07T20:46:24Z</time>
      </trkpt>
      <trkpt lat="45.35034" lon="4.37315">
        <ele>868</ele>
        <time>2020-07-07T20:47:16Z</time>
      </trkpt>
      <trkpt lat="45.35179" lon="4.3706">
        <ele>860</ele>
        <time>2020-07-07T20:48:10Z</time>
      </trkpt>
      <trkpt lat="45.3501" lon="4.36999">
        <ele>857</ele>
        <time>2020-07-07T20:48:51Z</time>
      </trkpt>
      <trkpt lat="45.35067" lon="4.36846">
        <ele>860</ele>
        <time>2020-07-07T20:49:19Z</time>
      </trkpt>
      <trkpt lat="45.34988" lon="4.36815">
        <ele>869</ele>
        <time>2020-07-07T20:49:38Z</time>
      </trkpt>
      <trkpt lat="45.35096" lon="4.36693">
        <ele>863</ele>
        <time>2020-07-07T20:50:11Z</time>
      </trkpt>
      <trkpt lat="45.34952" lon="4.36673">
        <ele>879</ele>
        <time>2020-07-07T20:50:44Z</time>
      </trkpt>
      <trkpt lat="45.34802" lon="4.36499">
        <ele>914</ele>
        <time>2020-07-07T20:51:30Z</time>
      </trkpt>
      <trkpt lat="45.34909" lon="4.3607">
        <ele>908</ele>
        <time>2020-07-07T20:52:44Z</time>
      </trkpt>
      <trkpt lat="45.35045" lon="4.35897">
        <ele>909</ele>
        <time>2020-07-07T20:53:27Z</time>
      </trkpt>
      <trkpt lat="45.35311" lon="4.3556">
        <ele>912</ele>
        <time>2020-07-07T20:54:50Z</time>
      </trkpt>
      <trkpt lat="45.35397" lon="4.35305">
        <ele>925</ele>
        <time>2020-07-07T20:55:36Z</time>
      </trkpt>
      <trkpt lat="45.35469" lon="4.34958">
        <ele>915</ele>
        <time>2020-07-07T20:56:36Z</time>
      </trkpt>
      <trkpt lat="45.35246" lon="4.34876">
        <ele>895</ele>
        <time>2020-07-07T20:57:30Z</time>
      </trkpt>
      <trkpt lat="45.35067" lon="4.34999">
        <ele>884</ele>
        <time>2020-07-07T20:58:16Z</time>
      </trkpt>
      <trkpt lat="45.34909" lon="4.34846">
        <ele>861</ele>
        <time>2020-07-07T20:59:01Z</time>
      </trkpt>
      <trkpt lat="45.34993" lon="4.34476">
        <ele>860</ele>
        <time>2020-07-07T21:00:04Z</time>
      </trkpt>
      <trkpt lat="45.35216" lon="4.34064">
        <ele>870</ele>
        <time>2020-07-07T21:01:30Z</time>
      </trkpt>
      <trkpt lat="45.35072" lon="4.33926">
        <ele>861</ele>
        <time>2020-07-07T21:02:10Z</time>
      </trkpt>
      <trkpt lat="45.34818" lon="4.34021">
        <ele>843</ele>
        <time>2020-07-07T21:03:12Z</time>
      </trkpt>
      <trkpt lat="45.34806" lon="4.33841">
        <ele>841</ele>
        <time>2020-07-07T21:03:41Z</time>
      </trkpt>
      <trkpt lat="45.34734" lon="4.33798">
        <ele>850</ele>
        <time>2020-07-07T21:04:00Z</time>
      </trkpt>
      <trkpt lat="45.34692" lon="4.33849">
        <ele>856</ele>
        <time>2020-07-07T21:04:13Z</time>
      </trkpt>
      <trkpt lat="45.34631" lon="4.33823">
        <ele>859</ele>
        <time>2020-07-07T21:04:27Z</time>
      </trkpt>
      <trkpt lat="45.34589" lon="4.33918">
        <ele>862</ele>
        <time>2020-07-07T21:04:46Z</time>
      </trkpt>
      <trkpt lat="45.34396" lon="4.33746">
        <ele>845</ele>
        <time>2020-07-07T21:05:39Z</time>
      </trkpt>
      <trkpt lat="45.34239" lon="4.33695">
        <ele>826</ele>
        <time>2020-07-07T21:06:17Z</time>
      </trkpt>
      <trkpt lat="45.34143" lon="4.33497">
        <ele>833</ele>
        <time>2020-07-07T21:06:56Z</time>
      </trkpt>
      <trkpt lat="45.34143" lon="4.3336">
        <ele>846</ele>
        <time>2020-07-07T21:07:19Z</time>
      </trkpt>
      <trkpt lat="45.34022" lon="4.33197">
        <ele>864</ele>
        <time>2020-07-07T21:07:57Z</time>
      </trkpt>
      <trkpt lat="45.3395" lon="4.33429">
        <ele>885</ele>
        <time>2020-07-07T21:08:39Z</time>
      </trkpt>
      <trkpt lat="45.336" lon="4.33746">
        <ele>896</ele>
        <time>2020-07-07T21:10:16Z</time>
      </trkpt>
      <trkpt lat="45.33497" lon="4.33901">
        <ele>899</ele>
        <time>2020-07-07T21:10:51Z</time>
      </trkpt>
      <trkpt lat="45.33189" lon="4.34064">
        <ele>898</ele>
        <time>2020-07-07T21:12:08Z</time>
      </trkpt>
      <trkpt lat="45.33153" lon="4.34098">
        <ele>900</ele>
        <time>2020-07-07T21:12:18Z</time>
      </trkpt>
      <trkpt lat="45.33014" lon="4.34364">
        <ele>918</ele>
        <time>2020-07-07T21:13:12Z</time>
      </trkpt>
      <trkpt lat="45.32888" lon="4.34304">
        <ele>909</ele>
        <time>2020-07-07T21:13:43Z</time>
      </trkpt>
      <trkpt lat="45.32821" lon="4.34261">
        <ele>897</ele>
        <time>2020-07-07T21:14:00Z</time>
      </trkpt>
      <trkpt lat="45.32743" lon="4.34055">
        <ele>893</ele>
        <time>2020-07-07T21:14:39Z</time>
      </trkpt>
      <trkpt lat="45.32682" lon="4.34021">
        <ele>895</ele>
        <time>2020-07-07T21:14:54Z</time>
      </trkpt>
      <trkpt lat="45.32628" lon="4.34167">
        <ele>897</ele>
        <time>2020-07-07T21:15:21Z</time>
      </trkpt>
      <trkpt lat="45.3252" lon="4.34433">
        <ele>913</ele>
        <time>2020-07-07T21:16:12Z</time>
      </trkpt>
      <trkpt lat="45.32604" lon="4.34519">
        <ele>910</ele>
        <time>2020-07-07T21:16:36Z</time>
      </trkpt>
      <trkpt lat="45.32622" lon="4.34888">
        <ele>912</ele>
        <time>2020-07-07T21:17:37Z</time>
      </trkpt>
      <trkpt lat="45.32495" lon="4.35034">
        <ele>898</ele>
        <time>2020-07-07T21:18:15Z</time>
      </trkpt>
      <trkpt lat="45.3229" lon="4.35051">
        <ele>901</ele>
        <time>2020-07-07T21:19:03Z</time>
      </trkpt>
      <trkpt lat="45.32157" lon="4.35214">
        <ele>912</ele>
        <time>2020-07-07T21:19:44Z</time>
      </trkpt>
      <trkpt lat="45.32133" lon="4.35403">
        <ele>923</ele>
        <time>2020-07-07T21:20:15Z</time>
      </trkpt>
      <trkpt lat="45.32363" lon="4.35617">
        <ele>908</ele>
        <time>2020-07-07T21:21:19Z</time>
      </trkpt>
      <trkpt lat="45.32272" lon="4.35858">
        <ele>895</ele>
        <time>2020-07-07T21:22:04Z</time>
      </trkpt>
      <trkpt lat="45.31699" lon="4.36175">
        <ele>893</ele>
        <time>2020-07-07T21:24:28Z</time>
      </trkpt>
      <trkpt lat="45.31427" lon="4.36081">
        <ele>891</ele>
        <time>2020-07-07T21:25:33Z</time>
      </trkpt>
      <trkpt lat="45.31307" lon="4.36285">
        <ele>891</ele>
        <time>2020-07-07T21:26:17Z</time>
      </trkpt>
    </trkseg>
  </trk>
</gpx>